Time;durP1;ratioP1;P1;durP2;ratioP2;P2;SDS_P1;SDS_P2;PMS_P1;PMS_P2;Temp;Humidity;BMP_temperature;BMP_pressure;BME280_temperature;BME280_humidity;BME280_pressure;Samples;Min_cycle;Max_cycle;Signal;HPM_P1;HPM_P2
2023/11/12 00:00:36;;;;;;;86.00;48.72;;;7.70;99.90;;;;;;5013103;28;20775;-74
2023/11/12 00:03:01;;;;;;;83.00;49.50;;;7.70;99.90;;;;;;5018480;28;20109;-73
2023/11/12 00:05:27;;;;;;;91.85;50.33;;;7.70;99.90;;;;;;5025770;28;20014;-73
2023/11/12 00:07:53;;;;;;;82.70;46.95;;;7.70;99.90;;;;;;5019937;28;20478;-74
2023/11/12 00:10:20;;;;;;;72.97;44.15;;;7.70;99.90;;;;;;5017023;28;20030;-75
2023/11/12 00:12:46;;;;;;;87.65;51.13;;;7.70;99.90;;;;;;5013790;28;20022;-74
2023/11/12 00:15:12;;;;;;;75.38;46.22;;;7.60;99.90;;;;;;5016546;28;20066;-74
2023/11/12 00:17:41;;;;;;;76.13;44.72;;;7.60;99.90;;;;;;5029182;28;20513;-74
2023/11/12 00:20:14;;;;;;;73.28;44.03;;;7.60;99.90;;;;;;5014999;28;20029;-77
2023/11/12 00:22:44;;;;;;;72.28;44.05;;;7.60;99.90;;;;;;5024287;28;20030;-75
2023/11/12 00:25:12;;;;;;;65.15;39.00;;;7.60;99.90;;;;;;5024852;28;20025;-74
2023/11/12 00:27:38;;;;;;;66.45;37.72;;;7.60;99.90;;;;;;5022273;28;20382;-74
2023/11/12 00:30:05;;;;;;;65.15;40.38;;;7.60;99.90;;;;;;5109319;27;20021;-76
2023/11/12 00:32:32;;;;;;;56.53;34.20;;;7.50;99.90;;;;;;5018600;28;20021;-75
2023/11/12 00:34:58;;;;;;;53.80;32.95;;;7.50;99.90;;;;;;5024544;28;20018;-75
2023/11/12 00:37:24;;;;;;;53.63;33.78;;;7.40;99.90;;;;;;5018522;28;20067;-74
2023/11/12 00:39:49;;;;;;;46.72;28.52;;;7.40;99.90;;;;;;5019999;28;20415;-74
2023/11/12 00:42:15;;;;;;;45.72;27.92;;;7.40;99.90;;;;;;5016685;28;20041;-74
2023/11/12 00:44:41;;;;;;;46.38;28.45;;;7.40;99.90;;;;;;5014381;28;20427;-74
2023/11/12 00:47:07;;;;;;;44.70;28.50;;;7.40;99.90;;;;;;5012963;28;20470;-74
2023/11/12 00:49:32;;;;;;;40.28;26.88;;;7.40;99.90;;;;;;5017210;28;20103;-74
2023/11/12 00:51:58;;;;;;;43.35;25.10;;;7.40;99.90;;;;;;5051258;28;20029;-74
2023/11/12 00:54:24;;;;;;;39.13;23.85;;;7.40;99.90;;;;;;5018510;28;20066;-73
2023/11/12 00:56:50;;;;;;;33.17;21.52;;;7.50;99.90;;;;;;5019778;28;20140;-74
2023/11/12 00:59:16;;;;;;;39.90;22.55;;;7.40;99.90;;;;;;5013583;28;20045;-74
2023/11/12 01:01:43;;;;;;;46.20;25.25;;;7.40;99.90;;;;;;5021941;28;20403;-74
2023/11/12 01:04:11;;;;;;;40.20;23.80;;;7.40;99.90;;;;;;5027362;28;20026;-73
2023/11/12 01:06:37;;;;;;;42.53;28.85;;;7.30;99.90;;;;;;5021672;28;20014;-74
2023/11/12 01:09:03;;;;;;;46.80;27.65;;;7.30;99.90;;;;;;5020121;28;20026;-74
2023/11/12 01:11:29;;;;;;;52.80;31.08;;;7.20;99.90;;;;;;5014809;28;20029;-74
2023/11/12 01:13:55;;;;;;;43.00;29.35;;;7.30;99.90;;;;;;5014872;28;20030;-74
2023/11/12 01:16:21;;;;;;;52.25;30.92;;;7.20;99.90;;;;;;5023030;28;20026;-74
2023/11/12 01:18:47;;;;;;;50.90;31.42;;;7.20;99.90;;;;;;5026817;28;20082;-74
2023/11/12 01:21:14;;;;;;;47.38;26.88;;;7.20;99.90;;;;;;5028392;28;20109;-74
2023/11/12 01:23:40;;;;;;;38.33;26.05;;;7.20;99.90;;;;;;5018544;28;20053;-73
2023/11/12 01:26:06;;;;;;;44.17;28.48;;;7.30;99.90;;;;;;5019536;28;20025;-73
2023/11/12 01:28:34;;;;;;;44.53;27.77;;;7.30;99.90;;;;;;5026612;28;20025;-74
2023/11/12 01:31:01;;;;;;;46.22;27.27;;;7.30;99.90;;;;;;5018097;28;20117;-75
2023/11/12 01:33:28;;;;;;;40.92;26.60;;;7.30;99.90;;;;;;5022286;28;20025;-74
2023/11/12 01:35:55;;;;;;;41.75;25.00;;;7.30;99.90;;;;;;5016689;28;20474;-73
2023/11/12 01:38:20;;;;;;;38.92;25.02;;;7.20;99.90;;;;;;5023156;28;20026;-75
2023/11/12 01:40:47;;;;;;;36.22;23.80;;;7.30;99.90;;;;;;5026927;28;20029;-75
2023/11/12 01:43:15;;;;;;;41.30;25.88;;;7.20;99.90;;;;;;5024246;28;20033;-74
2023/11/12 01:45:40;;;;;;;47.45;27.25;;;7.10;99.90;;;;;;5022039;28;20129;-74
2023/11/12 01:48:08;;;;;;;46.58;27.08;;;7.10;99.90;;;;;;5017520;28;20117;-74
2023/11/12 01:50:34;;;;;;;49.10;27.58;;;7.00;99.90;;;;;;5025578;28;20014;-73
2023/11/12 01:53:00;;;;;;;51.90;30.80;;;7.00;99.90;;;;;;5027934;28;20033;-74
2023/11/12 01:55:28;;;;;;;51.47;26.85;;;7.00;99.90;;;;;;5029925;28;20466;-74
2023/11/12 01:57:54;;;;;;;54.50;29.45;;;7.00;99.90;;;;;;5026618;28;20038;-74
2023/11/12 02:00:22;;;;;;;46.65;28.83;;;7.10;99.90;;;;;;5023954;28;20021;-74
2023/11/12 02:02:49;;;;;;;58.33;29.92;;;7.10;99.90;;;;;;5023423;28;20037;-74
2023/11/12 02:05:15;;;;;;;51.92;28.17;;;7.10;99.90;;;;;;5030523;28;20478;-74
2023/11/12 02:07:42;;;;;;;46.67;27.55;;;7.20;99.90;;;;;;5029197;28;20108;-74
2023/11/12 02:10:11;;;;;;;58.75;31.75;;;7.20;99.90;;;;;;5028899;28;20014;-73
2023/11/12 02:12:40;;;;;;;55.90;30.60;;;7.20;99.90;;;;;;5019947;28;20549;-74
2023/11/12 02:15:06;;;;;;;52.10;30.20;;;7.20;99.90;;;;;;5026608;28;20055;-74
2023/11/12 02:17:32;;;;;;;76.40;38.08;;;7.10;99.90;;;;;;5027886;28;20469;-73
2023/11/12 02:20:08;;;;;;;87.50;44.88;;;7.20;99.90;;;;;;5027871;28;20030;-74
2023/11/12 02:22:34;;;;;;;104.63;50.55;;;7.10;99.90;;;;;;5029862;28;20121;-74
2023/11/12 02:25:04;;;;;;;107.70;50.45;;;7.10;99.90;;;;;;5022100;28;20030;-75
2023/11/12 02:27:31;;;;;;;111.28;53.30;;;7.10;99.90;;;;;;5027484;28;20025;-74
2023/11/12 02:29:57;;;;;;;102.05;52.72;;;7.20;99.90;;;;;;5017140;28;20053;-74
2023/11/12 02:32:29;;;;;;;94.88;47.20;;;7.20;99.90;;;;;;5020761;28;20517;-74
2023/11/12 02:34:55;;;;;;;78.13;41.10;;;7.20;99.90;;;;;;5024402;28;20070;-74
2023/11/12 02:37:23;;;;;;;61.50;33.13;;;7.20;99.90;;;;;;5027384;28;20065;-74
2023/11/12 02:39:49;;;;;;;59.67;34.03;;;7.20;99.90;;;;;;5028356;28;20042;-73
2023/11/12 02:42:16;;;;;;;51.70;29.05;;;7.20;99.90;;;;;;5024610;28;20059;-74
2023/11/12 02:44:43;;;;;;;43.28;26.13;;;7.20;99.90;;;;;;5026125;28;20029;-73
2023/11/12 02:47:09;;;;;;;50.30;23.63;;;7.20;99.90;;;;;;5021089;28;20037;-74
2023/11/12 02:49:56;;;;;;;38.05;22.55;;;7.20;99.90;;;;;;5022760;27;20057;-74
2023/11/12 02:52:22;;;;;;;38.85;22.88;;;7.20;99.90;;;;;;5018207;28;20101;-74
2023/11/12 02:54:48;;;;;;;42.58;24.23;;;7.10;99.90;;;;;;5012273;28;20077;-73
2023/11/12 02:57:13;;;;;;;46.83;25.85;;;7.10;99.90;;;;;;5021186;28;20034;-73
2023/11/12 02:59:39;;;;;;;46.40;25.52;;;7.10;99.90;;;;;;5017014;28;20042;-74
2023/11/12 03:02:05;;;;;;;42.33;24.52;;;7.20;99.90;;;;;;5027126;27;20037;-74
2023/11/12 03:04:31;;;;;;;44.83;25.45;;;7.20;99.90;;;;;;5024175;28;20426;-74
2023/11/12 03:06:56;;;;;;;44.17;24.15;;;7.10;99.90;;;;;;5021602;28;20033;-74
2023/11/12 03:09:24;;;;;;;40.85;23.65;;;7.10;99.90;;;;;;5024692;28;20030;-74
2023/11/12 03:11:50;;;;;;;44.03;24.38;;;7.10;99.90;;;;;;5020989;28;20018;-73
2023/11/12 03:14:18;;;;;;;36.13;21.83;;;7.10;99.90;;;;;;5027238;28;20029;-74
2023/11/12 03:16:46;;;;;;;49.15;23.00;;;7.20;99.90;;;;;;5024022;28;20037;-74
2023/11/12 03:19:12;;;;;;;47.78;25.02;;;7.20;99.90;;;;;;5024310;28;20354;-74
2023/11/12 03:21:40;;;;;;;45.25;23.40;;;7.20;99.90;;;;;;5023361;28;20041;-74
2023/11/12 03:24:08;;;;;;;47.10;23.92;;;7.20;99.90;;;;;;5022264;28;20196;-74
2023/11/12 03:26:34;;;;;;;48.38;25.38;;;7.10;99.90;;;;;;5019133;28;20025;-74
2023/11/12 03:29:00;;;;;;;51.65;27.50;;;7.20;99.90;;;;;;5022831;28;20026;-74
2023/11/12 03:31:26;;;;;;;47.50;25.42;;;7.20;99.90;;;;;;5012816;28;20026;-74
2023/11/12 03:33:51;;;;;;;53.17;27.10;;;7.10;99.90;;;;;;5016154;28;20092;-74
2023/11/12 03:36:18;;;;;;;50.33;26.30;;;7.20;99.90;;;;;;5022437;28;20033;-74
2023/11/12 03:38:44;;;;;;;51.55;24.38;;;7.30;99.90;;;;;;5019538;28;20021;-73
2023/11/12 03:41:14;;;;;;;55.17;26.27;;;7.20;99.90;;;;;;5023143;28;20029;-74
2023/11/12 03:43:40;;;;;;;62.72;31.13;;;7.30;99.90;;;;;;5022400;28;20032;-74
2023/11/12 03:46:07;;;;;;;91.88;32.13;;;7.30;99.90;;;;;;5022726;28;20033;-73
2023/11/12 03:48:33;;;;;;;68.85;30.42;;;7.10;99.90;;;;;;5018852;28;20036;-74
2023/11/12 03:50:59;;;;;;;64.18;29.52;;;7.20;99.90;;;;;;5020337;28;20038;-73
2023/11/12 03:53:24;;;;;;;54.85;29.60;;;7.20;99.90;;;;;;5027393;28;20393;-74
2023/11/12 03:55:50;;;;;;;89.65;33.67;;;7.30;99.90;;;;;;5021854;28;20022;-74
2023/11/12 03:58:16;;;;;;;61.75;29.05;;;7.20;99.90;;;;;;5026600;28;20569;-74
2023/11/12 04:00:42;;;;;;;110.22;31.73;;;7.20;99.90;;;;;;5021705;28;20018;-74
2023/11/12 04:03:08;;;;;;;51.00;27.40;;;7.20;99.90;;;;;;5025013;28;20036;-73
2023/11/12 04:05:33;;;;;;;86.68;31.45;;;7.20;99.90;;;;;;5025716;28;20022;-73
2023/11/12 04:08:00;;;;;;;88.45;29.17;;;7.20;99.90;;;;;;5022226;28;20060;-74
2023/11/12 04:10:26;;;;;;;68.70;26.60;;;7.30;99.90;;;;;;5023251;28;20110;-74
2023/11/12 04:12:52;;;;;;;207.57;37.70;;;7.40;99.90;;;;;;5021473;28;20071;-74
2023/11/12 04:15:17;;;;;;;44.90;23.08;;;7.40;99.90;;;;;;5027110;28;20033;-74
2023/11/12 04:17:43;;;;;;;57.80;26.00;;;7.40;99.90;;;;;;5024084;28;20053;-74
2023/11/12 04:20:09;;;;;;;63.13;23.63;;;7.40;99.90;;;;;;5025569;28;20134;-74
2023/11/12 04:22:36;;;;;;;42.08;20.60;;;7.30;99.90;;;;;;5026547;28;20138;-74
2023/11/12 04:25:04;;;;;;;73.80;24.42;;;7.40;99.90;;;;;;5020165;28;20022;-74
2023/11/12 04:27:30;;;;;;;97.25;28.58;;;7.40;99.90;;;;;;5027174;28;20036;-74
2023/11/12 04:29:56;;;;;;;39.72;20.92;;;7.40;99.90;;;;;;5022969;28;20032;-74
2023/11/12 04:32:23;;;;;;;49.00;22.17;;;7.30;99.90;;;;;;5023008;28;20025;-73
2023/11/12 04:34:48;;;;;;;47.10;20.38;;;7.30;99.90;;;;;;5021680;28;20032;-74
2023/11/12 04:37:14;;;;;;;135.43;29.00;;;7.30;99.90;;;;;;5019690;28;20034;-74
2023/11/12 04:39:41;;;;;;;46.55;21.52;;;7.30;99.90;;;;;;5021213;28;20026;-74
2023/11/12 04:42:07;;;;;;;62.90;26.55;;;7.30;99.90;;;;;;5017769;28;20033;-73
2023/11/12 04:44:33;;;;;;;99.15;29.13;;;7.30;99.90;;;;;;5024911;28;20082;-73
2023/11/12 04:46:58;;;;;;;168.10;36.72;;;7.30;99.90;;;;;;5021162;28;20022;-73
2023/11/12 04:49:24;;;;;;;50.03;21.77;;;7.20;99.90;;;;;;5018113;28;20061;-74
2023/11/12 04:51:51;;;;;;;71.65;22.20;;;7.30;99.90;;;;;;5106347;27;20541;-73
2023/11/12 04:54:17;;;;;;;46.92;21.85;;;7.30;99.90;;;;;;5008620;28;20053;-73
2023/11/12 04:56:48;;;;;;;44.70;21.00;;;7.30;99.90;;;;;;5008796;28;20490;-74
2023/11/12 04:59:15;;;;;;;72.18;24.20;;;7.40;99.90;;;;;;5009099;28;20026;-73
2023/11/12 05:01:41;;;;;;;56.67;24.33;;;7.40;99.90;;;;;;5008903;28;20058;-74
2023/11/12 05:04:06;;;;;;;68.10;23.15;;;7.30;99.90;;;;;;5009336;28;20072;-74
2023/11/12 05:06:33;;;;;;;40.70;20.33;;;7.40;99.90;;;;;;5008528;28;20455;-74
2023/11/12 05:08:58;;;;;;;65.00;25.45;;;7.40;99.90;;;;;;5009552;28;20034;-73
2023/11/12 05:11:25;;;;;;;33.28;19.20;;;7.40;99.90;;;;;;5021409;28;20501;-74
2023/11/12 05:13:51;;;;;;;32.47;18.23;;;7.50;99.90;;;;;;5024816;28;21148;-74
2023/11/12 05:16:16;;;;;;;49.80;17.63;;;7.50;99.90;;;;;;5020227;28;20470;-74
2023/11/12 05:18:42;;;;;;;44.95;16.27;;;7.50;99.90;;;;;;5027028;27;20478;-73
2023/11/12 05:21:07;;;;;;;55.55;15.43;;;7.50;99.90;;;;;;5021666;28;20029;-74
2023/11/12 05:23:33;;;;;;;33.53;13.98;;;7.40;99.90;;;;;;5023991;28;20377;-73
2023/11/12 05:26:02;;;;;;;109.25;18.05;;;7.30;99.90;;;;;;5022319;28;20030;-74
2023/11/12 05:28:28;;;;;;;34.28;13.98;;;7.30;99.90;;;;;;5023643;28;20074;-73
2023/11/12 05:30:55;;;;;;;24.00;12.90;;;7.20;99.90;;;;;;5024056;27;20025;-74
2023/11/12 05:33:24;;;;;;;34.20;14.40;;;7.30;99.90;;;;;;5023544;28;20077;-74
2023/11/12 05:35:50;;;;;;;26.83;13.73;;;7.30;99.90;;;;;;5022166;28;20045;-74
2023/11/12 05:38:15;;;;;;;19.45;13.18;;;7.30;99.90;;;;;;5024146;28;20033;-74
2023/11/12 05:40:41;;;;;;;42.33;14.07;;;7.30;99.90;;;;;;5023687;27;20093;-73
2023/11/12 05:43:07;;;;;;;24.48;13.43;;;7.40;99.90;;;;;;5017547;28;20029;-74
2023/11/12 05:45:33;;;;;;;70.70;15.75;;;7.40;99.90;;;;;;5021427;28;20105;-73
2023/11/12 05:47:58;;;;;;;39.40;14.02;;;7.40;99.90;;;;;;5019034;28;20695;-73
2023/11/12 05:50:24;;;;;;;65.35;15.65;;;7.40;99.90;;;;;;5022631;28;20044;-74
2023/11/12 05:52:51;;;;;;;29.92;12.52;;;7.30;99.90;;;;;;5023934;28;20398;-73
2023/11/12 05:55:17;;;;;;;100.38;18.58;;;7.30;99.90;;;;;;5020955;28;20025;-74
2023/11/12 05:57:42;;;;;;;216.93;25.08;;;7.20;99.90;;;;;;5022639;28;20049;-74
2023/11/12 06:00:12;;;;;;;136.80;18.67;;;7.00;99.90;;;;;;5021978;28;20021;-74
2023/11/12 06:02:38;;;;;;;210.27;24.65;;;6.80;99.90;;;;;;5025491;28;20482;-74
2023/11/12 06:05:05;;;;;;;219.85;30.13;;;6.90;99.90;;;;;;5021257;28;20092;-74
2023/11/12 06:07:34;;;;;;;87.15;21.65;;;6.90;99.90;;;;;;5023402;28;20026;-73
2023/11/12 06:10:00;;;;;;;153.88;23.92;;;6.80;99.90;;;;;;5019248;28;20029;-74
2023/11/12 06:12:26;;;;;;;48.42;15.65;;;6.80;99.90;;;;;;5027427;28;20090;-73
2023/11/12 06:14:52;;;;;;;86.55;18.35;;;7.00;99.90;;;;;;5021112;27;20030;-73
2023/11/12 06:17:17;;;;;;;59.85;14.90;;;7.10;99.90;;;;;;5017610;28;20064;-73
2023/11/12 06:19:43;;;;;;;98.68;14.98;;;7.10;99.90;;;;;;5024550;28;21391;-74
2023/11/12 06:22:09;;;;;;;107.15;14.98;;;7.20;99.90;;;;;;5020272;28;20034;-73
2023/11/12 06:24:34;;;;;;;49.38;12.68;;;7.00;99.90;;;;;;5021088;28;20075;-74
2023/11/12 06:27:00;;;;;;;74.80;14.13;;;7.10;99.90;;;;;;5021808;28;20047;-74
2023/11/12 06:29:26;;;;;;;38.05;11.35;;;7.10;99.90;;;;;;5023749;28;20029;-74
2023/11/12 06:31:51;;;;;;;57.13;12.23;;;6.90;99.90;;;;;;5019836;28;20014;-73
2023/11/12 06:34:18;;;;;;;70.10;13.32;;;6.90;99.90;;;;;;5022618;28;20128;-74
2023/11/12 06:36:44;;;;;;;110.00;14.25;;;6.80;99.90;;;;;;5018604;28;20030;-73
2023/11/12 06:39:16;;;;;;;90.25;12.32;;;6.70;99.90;;;;;;5022817;28;20033;-73
2023/11/12 06:41:42;;;;;;;71.68;12.60;;;6.80;99.90;;;;;;5103381;27;20032;-74
2023/11/12 06:44:08;;;;;;;38.13;11.65;;;6.80;99.90;;;;;;5019602;28;20026;-74
2023/11/12 06:46:33;;;;;;;51.40;11.93;;;6.90;99.90;;;;;;5055399;27;20377;-74
2023/11/12 06:48:59;;;;;;;57.67;11.90;;;6.90;99.90;;;;;;5016794;28;20034;-74
2023/11/12 06:51:25;;;;;;;112.25;15.68;;;6.90;99.90;;;;;;5018445;28;20546;-74
2023/11/12 06:53:51;;;;;;;120.72;15.73;;;6.90;99.90;;;;;;5023869;28;20436;-74
2023/11/12 06:56:17;;;;;;;29.77;12.38;;;7.00;99.90;;;;;;5020290;28;20028;-74
2023/11/12 06:58:43;;;;;;;51.40;12.38;;;6.90;99.90;;;;;;5027579;27;20041;-74
2023/11/12 07:01:09;;;;;;;33.08;11.57;;;6.90;99.90;;;;;;5017535;28;20041;-74
2023/11/12 07:03:34;;;;;;;57.38;12.95;;;6.90;99.90;;;;;;5023297;28;20029;-74
2023/11/12 07:06:00;;;;;;;189.95;21.85;;;6.80;99.90;;;;;;5101587;27;20132;-72
2023/11/12 07:08:27;;;;;;;38.80;11.45;;;6.80;99.90;;;;;;5021736;28;20482;-74
2023/11/12 07:10:53;;;;;;;154.48;16.67;;;6.80;99.90;;;;;;5017280;28;20114;-74
2023/11/12 07:13:19;;;;;;;52.65;10.68;;;6.70;99.90;;;;;;5020675;28;20026;-74
2023/11/12 07:15:45;;;;;;;65.78;11.23;;;6.70;99.90;;;;;;5024154;28;20026;-74
2023/11/12 07:18:11;;;;;;;66.18;10.68;;;6.90;99.90;;;;;;5028667;28;20151;-73
2023/11/12 07:20:38;;;;;;;86.22;12.18;;;6.90;99.90;;;;;;5027577;28;20478;-73
2023/11/12 07:23:04;;;;;;;77.72;12.25;;;6.70;99.90;;;;;;5021246;28;20037;-74
2023/11/12 07:25:29;;;;;;;99.50;14.40;;;6.60;99.90;;;;;;5018453;28;20022;-73
2023/11/12 07:27:55;;;;;;;135.05;13.88;;;6.50;99.90;;;;;;5024699;28;20393;-73
2023/11/12 07:30:21;;;;;;;200.35;21.25;;;6.60;99.90;;;;;;5021735;28;20075;-73
2023/11/12 07:32:47;;;;;;;74.57;12.57;;;6.50;99.90;;;;;;5017169;28;20025;-73
2023/11/12 07:35:13;;;;;;;56.45;12.30;;;6.50;99.90;;;;;;5020429;28;20405;-73
2023/11/12 07:37:42;;;;;;;109.97;13.60;;;6.60;99.90;;;;;;5015997;28;20048;-73
2023/11/12 07:40:12;;;;;;;134.10;15.07;;;6.50;99.90;;;;;;5020972;28;20067;-73
2023/11/12 07:42:40;;;;;;;25.80;10.88;;;6.50;99.90;;;;;;5019757;28;20089;-73
2023/11/12 07:45:11;;;;;;;191.23;20.63;;;6.60;99.90;;;;;;5018339;28;20513;-74
2023/11/12 07:47:40;;;;;;;63.17;12.05;;;6.50;99.90;;;;;;5027274;28;20432;-73
2023/11/12 07:50:07;;;;;;;55.17;12.23;;;6.30;99.90;;;;;;5025665;28;20030;-73
2023/11/12 07:52:35;;;;;;;36.10;10.98;;;6.50;99.90;;;;;;5019971;28;20025;-74
2023/11/12 07:55:01;;;;;;;40.05;10.50;;;6.40;99.90;;;;;;5016672;28;20030;-74
2023/11/12 07:57:27;;;;;;;49.17;11.45;;;6.50;99.90;;;;;;5030102;28;20037;-74
2023/11/12 07:59:53;;;;;;;32.67;9.38;;;6.60;99.90;;;;;;5016360;28;20030;-72
2023/11/12 08:02:19;;;;;;;36.05;9.88;;;6.60;99.90;;;;;;5016562;28;20067;-73
2023/11/12 08:04:44;;;;;;;16.98;9.35;;;6.70;99.90;;;;;;5023412;28;20041;-74
2023/11/12 08:07:10;;;;;;;57.65;10.15;;;6.70;99.90;;;;;;5019306;28;20018;-73
2023/11/12 08:09:43;;;;;;;33.67;10.63;;;6.60;99.90;;;;;;5022027;28;20033;-74
2023/11/12 08:12:09;;;;;;;23.52;9.55;;;6.50;99.90;;;;;;5023285;28;20489;-74
2023/11/12 08:14:38;;;;;;;22.83;10.27;;;6.60;99.90;;;;;;5012340;27;20118;-74
2023/11/12 08:17:03;;;;;;;46.83;10.85;;;6.60;99.90;;;;;;5008485;28;20064;-74
2023/11/12 08:19:29;;;;;;;36.22;10.32;;;6.60;99.90;;;;;;5024185;28;20045;-75
2023/11/12 08:21:55;;;;;;;25.52;11.93;;;6.70;99.90;;;;;;5031668;28;20037;-74
2023/11/12 08:24:20;;;;;;;76.63;13.82;;;6.70;99.90;;;;;;5019344;28;20030;-74
2023/11/12 08:26:47;;;;;;;54.85;13.07;;;6.50;99.90;;;;;;5026576;28;20052;-74
2023/11/12 08:29:13;;;;;;;70.53;13.23;;;6.50;99.90;;;;;;5024965;27;20109;-74
2023/11/12 08:31:39;;;;;;;35.85;11.23;;;6.50;99.90;;;;;;5026700;27;20060;-74
2023/11/12 08:34:06;;;;;;;39.22;11.88;;;6.60;99.90;;;;;;5025962;28;20448;-74
2023/11/12 08:36:32;;;;;;;26.73;11.07;;;6.60;99.90;;;;;;5018410;28;20041;-74
2023/11/12 08:38:58;;;;;;;54.00;13.32;;;6.60;99.90;;;;;;5021036;28;20029;-74
2023/11/12 08:41:24;;;;;;;44.95;11.52;;;6.60;99.90;;;;;;5022908;28;20133;-74
2023/11/12 08:43:50;;;;;;;18.38;11.05;;;6.40;99.90;;;;;;5034064;28;20065;-75
2023/11/12 08:46:17;;;;;;;23.83;10.40;;;6.50;99.90;;;;;;5018679;28;20022;-75
2023/11/12 08:48:43;;;;;;;35.33;13.40;;;6.40;99.90;;;;;;5029537;28;20017;-75
2023/11/12 08:51:12;;;;;;;24.75;12.98;;;6.50;99.90;;;;;;5028808;28;20385;-75
2023/11/12 08:53:39;;;;;;;23.10;13.05;;;6.60;99.90;;;;;;5025695;27;20025;-76
2023/11/12 08:56:06;;;;;;;15.88;11.25;;;6.70;99.90;;;;;;5032709;27;20108;-76
2023/11/12 08:58:32;;;;;;;27.00;13.38;;;6.90;99.90;;;;;;5033938;28;20036;-75
2023/11/12 09:00:58;;;;;;;15.30;10.65;;;6.90;99.90;;;;;;5023707;27;20116;-75
2023/11/12 09:03:24;;;;;;;20.13;12.32;;;6.90;99.90;;;;;;5023692;27;20547;-75
2023/11/12 09:05:49;;;;;;;19.42;13.43;;;7.00;99.90;;;;;;5029697;27;20397;-76
2023/11/12 09:08:16;;;;;;;21.58;13.30;;;7.00;99.90;;;;;;5026771;27;20025;-76
2023/11/12 09:10:42;;;;;;;21.65;13.48;;;7.00;99.90;;;;;;5032017;27;20029;-76
2023/11/12 09:13:09;;;;;;;21.13;12.23;;;7.20;99.90;;;;;;5028221;27;20025;-76
2023/11/12 09:15:36;;;;;;;27.30;13.82;;;7.20;99.90;;;;;;5025413;28;20113;-76
2023/11/12 09:18:02;;;;;;;25.33;13.15;;;7.20;99.90;;;;;;5021806;28;20481;-75
2023/11/12 09:20:28;;;;;;;19.40;12.50;;;7.20;99.90;;;;;;5030972;27;20033;-76
2023/11/12 09:22:53;;;;;;;20.38;13.13;;;7.20;99.90;;;;;;5025026;28;20470;-75
2023/11/12 09:25:19;;;;;;;24.02;12.82;;;7.30;99.90;;;;;;5024642;28;20025;-76
2023/11/12 09:27:45;;;;;;;18.00;13.25;;;7.30;99.90;;;;;;5022778;27;20662;-75
2023/11/12 09:30:11;;;;;;;20.42;13.68;;;7.40;99.90;;;;;;5022837;28;20044;-76
2023/11/12 09:32:37;;;;;;;28.50;14.68;;;7.60;99.90;;;;;;5025662;28;20082;-76
2023/11/12 09:35:05;;;;;;;24.50;14.25;;;7.60;99.90;;;;;;5026624;27;20031;-76
2023/11/12 09:37:31;;;;;;;25.25;14.38;;;7.80;99.90;;;;;;5028463;28;20080;-76
2023/11/12 09:39:57;;;;;;;19.92;12.75;;;7.70;99.90;;;;;;5021221;27;20041;-76
2023/11/12 09:42:27;;;;;;;24.35;14.43;;;7.80;99.90;;;;;;5028047;28;20025;-76
2023/11/12 09:44:56;;;;;;;18.75;12.82;;;7.80;99.90;;;;;;5023769;27;20028;-76
2023/11/12 09:47:56;;;;;;;25.35;15.20;;;7.90;99.90;;;;;;5027278;28;20458;-76
2023/11/12 09:50:25;;;;;;;25.35;13.45;;;8.10;99.90;;;;;;5019886;28;20605;-76
2023/11/12 09:52:53;;;;;;;20.27;13.10;;;8.20;99.90;;;;;;5023981;28;20094;-76
2023/11/12 09:55:21;;;;;;;23.65;13.00;;;8.30;99.90;;;;;;5017617;27;20029;-76
2023/11/12 09:57:51;;;;;;;19.52;11.13;;;8.40;99.90;;;;;;5023266;28;20041;-76
2023/11/12 10:00:17;;;;;;;18.80;12.07;;;8.40;99.90;;;;;;5034047;27;20017;-77
2023/11/12 10:02:46;;;;;;;20.25;12.55;;;8.60;99.90;;;;;;5021934;28;20025;-76
2023/11/12 10:05:13;;;;;;;18.20;12.43;;;8.60;99.90;;;;;;5028878;27;20052;-77
2023/11/12 10:07:39;;;;;;;19.27;12.35;;;8.70;99.90;;;;;;5026997;27;20022;-76
2023/11/12 10:10:30;;;;;;;18.77;12.10;;;8.80;99.90;;;;;;5031696;27;20044;-76
2023/11/12 10:12:57;;;;;;;21.23;10.52;;;8.80;99.90;;;;;;5033739;27;20515;-77
2023/11/12 10:15:30;;;;;;;20.95;12.05;;;9.00;99.90;;;;;;5016166;27;20025;-76
2023/11/12 10:17:56;;;;;;;19.98;12.48;;;9.00;99.90;;;;;;5025023;28;20057;-76
2023/11/12 10:20:26;;;;;;;20.30;12.45;;;9.10;99.90;;;;;;5027257;27;20036;-76
2023/11/12 10:22:52;;;;;;;21.50;12.82;;;9.20;99.90;;;;;;5027585;28;20021;-77
2023/11/12 10:25:38;;;;;;;19.50;11.30;;;9.40;99.90;;;;;;5024287;28;20108;-77
2023/11/12 10:28:06;;;;;;;17.08;10.77;;;9.40;99.90;;;;;;5026029;27;20037;-77
2023/11/12 10:30:33;;;;;;;19.27;11.00;;;9.40;99.90;;;;;;5029251;27;20130;-78
2023/11/12 10:33:17;;;;;;;17.77;12.25;;;9.50;99.90;;;;;;5032582;28;20033;-77
2023/11/12 10:35:45;;;;;;;20.35;11.25;;;9.60;99.90;;;;;;5026140;28;20040;-76
2023/11/12 10:38:14;;;;;;;18.88;11.63;;;9.70;99.90;;;;;;5027666;27;20044;-78
2023/11/12 10:41:02;;;;;;;16.38;9.65;;;9.80;99.90;;;;;;5024854;28;20024;-76
2023/11/12 10:43:29;;;;;;;17.63;10.07;;;9.70;99.90;;;;;;5024437;28;20048;-77
2023/11/12 10:46:06;;;;;;;18.73;11.40;;;9.70;99.90;;;;;;5030036;27;20446;-74
2023/11/12 10:48:33;;;;;;;19.15;10.50;;;9.90;99.90;;;;;;5030683;27;20024;-77
2023/11/12 10:51:01;;;;;;;18.30;10.00;;;9.90;99.90;;;;;;5025358;28;20029;-74
2023/11/12 10:53:30;;;;;;;19.52;10.38;;;9.90;99.90;;;;;;5026496;28;20066;-75
2023/11/12 10:55:59;;;;;;;19.58;9.52;;;9.90;99.90;;;;;;5026865;27;20153;-75
2023/11/12 10:58:27;;;;;;;16.08;8.52;;;10.00;99.90;;;;;;5026567;27;20029;-74
2023/11/12 11:00:59;;;;;;;16.30;8.52;;;10.00;99.90;;;;;;5026351;27;20034;-76
2023/11/12 11:03:29;;;;;;;14.43;6.32;;;10.20;99.90;;;;;;5023191;28;20025;-75
2023/11/12 11:05:57;;;;;;;12.43;6.57;;;10.30;99.90;;;;;;5029489;27;20027;-75
2023/11/12 11:08:24;;;;;;;14.57;6.82;;;10.30;99.90;;;;;;5026984;28;20022;-73
2023/11/12 11:10:50;;;;;;;15.00;6.32;;;10.40;99.90;;;;;;5020182;28;20108;-76
2023/11/12 11:13:16;;;;;;;12.02;5.70;;;10.40;99.90;;;;;;5022653;28;20067;-79
2023/11/12 11:15:52;;;;;;;9.93;5.50;;;10.40;99.90;;;;;;5026291;28;20029;-74
2023/11/12 11:18:35;;;;;;;11.75;5.22;;;10.50;99.90;;;;;;5023908;27;20344;-77
2023/11/12 11:23:53;;;;;;;10.48;4.50;;;10.50;99.90;;;;;;5021202;27;20550;-76
2023/11/12 11:26:26;;;;;;;11.75;4.93;;;10.60;99.90;;;;;;5026152;27;20040;-78
2023/11/12 11:29:18;;;;;;;;;;;10.60;99.90;;;;;;5027058;28;20029;-76
2023/11/12 11:31:47;;;;;;;10.88;5.00;;;10.60;99.90;;;;;;5030268;27;19916;-75
2023/11/12 11:34:13;;;;;;;15.30;5.13;;;10.70;99.90;;;;;;5025249;27;20055;-75
2023/11/12 11:36:42;;;;;;;19.20;5.40;;;10.70;99.90;;;;;;5022447;28;20104;-77
2023/11/12 11:39:11;;;;;;;17.52;6.07;;;10.80;99.90;;;;;;5021239;28;20041;-77
2023/11/12 11:41:58;;;;;;;12.07;5.05;;;10.80;99.90;;;;;;5026848;28;20088;-76
2023/11/12 11:44:37;;;;;;;14.20;4.93;;;10.80;99.90;;;;;;5017719;28;20025;-77
2023/11/12 11:47:11;;;;;;;12.27;4.50;;;10.90;99.90;;;;;;5025155;28;20042;-79
2023/11/12 11:49:39;;;;;;;11.43;4.38;;;11.00;99.90;;;;;;5023523;27;20167;-78
2023/11/12 11:52:08;;;;;;;8.63;4.22;;;11.10;99.90;;;;;;5019907;27;20017;-82
2023/11/12 11:54:34;;;;;;;7.85;3.28;;;11.20;99.90;;;;;;5023803;28;20077;-79
2023/11/12 11:57:01;;;;;;;11.32;3.40;;;11.30;99.90;;;;;;5018533;28;20149;-76
2023/11/12 11:59:32;;;;;;;11.63;4.10;;;11.30;99.90;;;;;;5025790;28;20028;-74
2023/11/12 12:01:59;;;;;;;11.93;3.60;;;11.30;99.90;;;;;;5032799;27;20505;-75
2023/11/12 12:04:25;;;;;;;10.77;3.42;;;11.20;99.90;;;;;;5027772;28;20022;-81
2023/11/12 12:06:52;;;;;;;9.80;3.45;;;11.20;99.90;;;;;;5019449;27;20017;-79
2023/11/12 12:09:19;;;;;;;9.63;3.30;;;11.20;99.90;;;;;;5025931;28;20030;-76
2023/11/12 12:11:51;;;;;;;10.77;3.47;;;11.20;99.90;;;;;;5021601;28;20029;-79
2023/11/12 12:14:19;;;;;;;11.70;3.17;;;11.20;99.90;;;;;;5022096;28;20533;-76
2023/11/12 12:16:45;;;;;;;11.30;3.75;;;11.10;99.90;;;;;;5026203;28;20025;-75
2023/11/12 12:19:21;;;;;;;11.40;3.00;;;11.10;99.90;;;;;;5022391;27;20263;-78
2023/11/12 12:21:48;;;;;;;8.45;3.28;;;11.10;99.90;;;;;;5023799;27;20503;-76
2023/11/12 12:24:16;;;;;;;7.78;3.72;;;11.10;99.90;;;;;;5025421;28;20033;-78
2023/11/12 12:26:43;;;;;;;9.40;3.17;;;11.10;99.90;;;;;;5024998;28;20403;-79
2023/11/12 12:29:23;;;;;;;9.82;3.63;;;11.00;99.90;;;;;;5021468;28;20025;-76
2023/11/12 12:31:50;;;;;;;7.32;3.28;;;11.00;99.90;;;;;;5022668;28;20150;-77
2023/11/12 12:34:18;;;;;;;10.82;3.22;;;11.00;99.90;;;;;;5021386;28;20025;-74
2023/11/12 12:37:02;;;;;;;6.95;2.92;;;11.00;99.90;;;;;;5021375;28;20034;-74
2023/11/12 12:39:28;;;;;;;12.60;3.60;;;11.00;99.90;;;;;;5025209;28;20115;-76